Time;durP1;ratioP1;P1;durP2;ratioP2;P2;SDS_P1;SDS_P2;PMS_P1;PMS_P2;Temp;Humidity;BMP_temperature;BMP_pressure;BME280_temperature;BME280_humidity;BME280_pressure;Samples;Min_cycle;Max_cycle;Signal;HPM_P1;HPM_P2
2021/07/04 00:01:59;;;;;;;52.20;38.67;;;;;;;;;;5020059;28;20032;-89
2021/07/04 00:04:44;;;;;;;58.88;41.90;;;;;;;;;;4963249;28;20048;-90
2021/07/04 00:07:29;;;;;;;60.45;42.35;;;;;;;;;;5012885;28;20040;-94
2021/07/04 00:10:18;;;;;;;54.78;42.53;;;;;;;;;;5040316;28;20100;-93
2021/07/04 00:13:05;;;;;;;54.65;38.55;;;;;;;;;;5012007;28;21211;-83
2021/07/04 00:15:49;;;;;;;;;;;;;;;;;;5022338;28;20449;-91
2021/07/04 00:18:36;;;;;;;57.45;41.13;;;;;;;;;;5035782;28;19920;-85
2021/07/04 00:21:24;;;;;;;52.63;37.85;;;;;;;;;;5007233;28;20527;-85
2021/07/04 00:24:12;;;;;;;51.50;38.05;;;;;;;;;;5004063;28;20048;-88
2021/07/04 00:26:58;;;;;;;57.05;42.55;;;;;;;;;;4995793;28;20064;-92
2021/07/04 00:29:48;;;;;;;65.55;42.65;;;;;;;;;;4962793;28;20052;-92
2021/07/04 00:32:33;;;;;;;65.93;45.55;;;;;;;;;;4979605;28;20056;-94
2021/07/04 00:35:20;;;;;;;55.35;41.47;;;;;;;;;;4974197;28;20060;-82
2021/07/04 00:38:08;;;;;;;59.30;40.45;;;;;;;;;;5024712;28;20295;-89
2021/07/04 00:40:53;;;;;;;65.00;41.17;;;;;;;;;;5023384;28;20549;-92
2021/07/04 00:43:42;;;;;;;55.10;40.15;;;;;;;;;;5036530;28;20040;-86
2021/07/04 00:46:30;;;;;;;77.93;52.85;;;;;;;;;;5005571;28;20051;-87
2021/07/04 00:49:15;;;;;;;74.63;54.42;;;;;;;;;;5035079;28;20044;-90
2021/07/04 00:52:02;;;;;;;69.30;49.47;;;;;;;;;;5021665;28;20045;-87
2021/07/04 00:54:47;;;;;;;62.80;43.50;;;;;;;;;;4994877;28;20547;-87
2021/07/04 00:57:33;;;;;;;61.63;43.92;;;;;;;;;;5003751;28;20040;-87
2021/07/04 01:00:22;;;;;;;61.05;44.30;;;;;;;;;;5007575;28;20044;-92
2021/07/04 01:03:08;;;;;;;53.85;39.45;;;;;;;;;;5017204;28;20404;-92
2021/07/04 01:05:53;;;;;;;59.50;40.47;;;;;;;;;;5051537;28;20048;-87
2021/07/04 01:08:38;;;;;;;62.30;44.70;;;;;;;;;;5036353;28;20036;-86
2021/07/04 01:11:23;;;;;;;55.00;41.97;;;;;;;;;;5036766;28;20052;-86
2021/07/04 01:14:08;;;;;;;54.90;40.83;;;;;;;;;;5024104;28;20056;-85
2021/07/04 01:16:54;;;;;;;58.88;43.22;;;;;;;;;;5033783;28;20044;-85
2021/07/04 01:19:41;;;;;;;63.78;46.95;;;;;;;;;;5004487;28;20048;-85
2021/07/04 01:22:27;;;;;;;66.28;44.97;;;;;;;;;;5023490;28;20506;-92
2021/07/04 01:25:14;;;;;;;58.45;45.17;;;;;;;;;;4993207;28;20060;-85
2021/07/04 01:28:00;;;;;;;60.70;44.17;;;;;;;;;;5002582;28;20056;-83
2021/07/04 01:30:47;;;;;;;65.50;44.90;;;;;;;;;;5021716;28;20040;-83
2021/07/04 01:33:32;;;;;;;62.03;45.05;;;;;;;;;;5021385;28;20526;-85
2021/07/04 01:36:18;;;;;;;60.05;42.65;;;;;;;;;;5023640;28;20040;-87
2021/07/04 01:39:03;;;;;;;57.58;40.97;;;;;;;;;;5039735;28;20095;-87
2021/07/04 01:41:49;;;;;;;61.08;41.70;;;;;;;;;;5041314;28;20234;-87
2021/07/04 01:44:34;;;;;;;50.03;36.35;;;;;;;;;;5015732;28;20438;-87
2021/07/04 01:47:21;;;;;;;52.97;36.55;;;;;;;;;;5024988;28;20040;-84
2021/07/04 01:50:07;;;;;;;51.85;36.95;;;;;;;;;;5007418;28;20052;-85
2021/07/04 01:52:52;;;;;;;48.47;36.45;;;;;;;;;;5034004;28;20047;-87
2021/07/04 01:55:42;;;;;;;53.15;36.35;;;;;;;;;;5034239;28;20063;-84
2021/07/04 01:58:29;;;;;;;;;;;;;;;;;;5006844;28;20040;-85
2021/07/04 02:01:15;;;;;;;52.72;36.53;;;;;;;;;;5024752;28;19920;-85
2021/07/04 02:04:00;;;;;;;48.00;33.97;;;;;;;;;;5041397;28;20060;-85
2021/07/04 02:06:48;;;;;;;45.50;33.63;;;;;;;;;;5025035;28;20052;-86
2021/07/04 02:09:33;;;;;;;45.65;32.60;;;;;;;;;;5010972;28;20053;-86
2021/07/04 02:12:19;;;;;;;46.45;33.75;;;;;;;;;;5017313;28;20059;-85
2021/07/04 02:15:24;;;;;;;50.47;34.35;;;;;;;;;;5018117;28;20083;-85
2021/07/04 02:18:13;;;;;;;45.25;35.83;;;;;;;;;;5016168;28;20393;-85
2021/07/04 02:20:58;;;;;;;44.58;31.95;;;;;;;;;;5031181;28;20059;-83
2021/07/04 02:23:43;;;;;;;42.35;32.45;;;;;;;;;;5025236;28;20545;-85
2021/07/04 02:26:29;;;;;;;45.85;33.47;;;;;;;;;;5011146;28;20059;-86
2021/07/04 02:29:18;;;;;;;44.35;33.95;;;;;;;;;;5046908;28;20048;-86
2021/07/04 02:32:05;;;;;;;38.65;30.77;;;;;;;;;;5029877;28;20328;-87
2021/07/04 02:34:50;;;;;;;42.72;29.90;;;;;;;;;;5030110;28;20536;-85
2021/07/04 02:37:34;;;;;;;44.72;30.42;;;;;;;;;;5000053;28;20044;-84
2021/07/04 02:40:19;;;;;;;38.92;29.45;;;;;;;;;;5017876;28;20224;-87
2021/07/04 02:43:07;;;;;;;41.20;29.70;;;;;;;;;;5018951;28;20087;-85
2021/07/04 02:45:51;;;;;;;;;;;;;;;;;;5050902;28;20043;-82
2021/07/04 02:48:37;;;;;;;39.08;28.80;;;;;;;;;;5024515;28;19919;-87
2021/07/04 02:51:21;;;;;;;37.80;27.05;;;;;;;;;;5030542;28;20044;-85
2021/07/04 02:54:06;;;;;;;44.22;29.83;;;;;;;;;;5046709;28;20056;-84
2021/07/04 02:56:51;;;;;;;38.08;27.42;;;;;;;;;;5045367;28;20044;-83
2021/07/04 02:59:36;;;;;;;39.03;27.63;;;;;;;;;;5033117;28;20040;-84
2021/07/04 03:02:21;;;;;;;40.25;28.88;;;;;;;;;;5037593;28;20051;-86
2021/07/04 03:05:08;;;;;;;39.85;27.95;;;;;;;;;;5021484;28;20051;-88
2021/07/04 03:07:53;;;;;;;42.13;31.20;;;;;;;;;;5047898;28;20044;-89
2021/07/04 03:10:40;;;;;;;40.70;27.77;;;;;;;;;;4999487;28;20403;-90
2021/07/04 03:13:25;;;;;;;37.75;27.63;;;;;;;;;;5025215;28;20059;-85
2021/07/04 03:16:10;;;;;;;36.22;26.38;;;;;;;;;;5028423;28;20055;-83
2021/07/04 03:18:58;;;;;;;33.33;25.48;;;;;;;;;;5035075;28;20398;-91
2021/07/04 03:21:45;;;;;;;33.88;26.92;;;;;;;;;;4996059;28;20044;-94
2021/07/04 03:24:30;;;;;;;37.17;26.30;;;;;;;;;;4987834;28;20044;-92
2021/07/04 03:27:15;;;;;;;32.03;24.40;;;;;;;;;;5024050;28;20048;-91
2021/07/04 03:30:01;;;;;;;34.92;26.33;;;;;;;;;;5035344;28;20040;-89
2021/07/04 03:32:47;;;;;;;33.60;24.77;;;;;;;;;;5041133;28;20043;-89
2021/07/04 03:35:32;;;;;;;36.25;25.42;;;;;;;;;;5022158;28;20083;-89
2021/07/04 03:38:18;;;;;;;37.13;25.02;;;;;;;;;;5019719;28;20052;-89
2021/07/04 03:41:03;;;;;;;37.42;27.30;;;;;;;;;;5035069;28;20044;-88
2021/07/04 03:43:48;;;;;;;33.83;25.00;;;;;;;;;;4996159;28;20040;-91
2021/07/04 03:46:34;;;;;;;34.45;26.48;;;;;;;;;;5025643;28;20055;-94
2021/07/04 03:49:19;;;;;;;34.47;25.90;;;;;;;;;;5016556;28;20446;-88
2021/07/04 03:52:05;;;;;;;38.17;27.05;;;;;;;;;;5030435;28;20040;-89
2021/07/04 03:54:50;;;;;;;32.83;25.17;;;;;;;;;;5025802;28;20453;-90
2021/07/04 03:57:36;;;;;;;37.88;25.48;;;;;;;;;;5036748;28;20064;-91
2021/07/04 04:00:21;;;;;;;41.75;28.83;;;;;;;;;;5036595;28;20548;-88
2021/07/04 04:03:06;;;;;;;47.65;33.00;;;;;;;;;;5037833;28;20040;-90
2021/07/04 04:05:51;;;;;;;41.25;30.67;;;;;;;;;;5040071;28;20055;-90
2021/07/04 04:08:36;;;;;;;45.90;33.38;;;;;;;;;;5006469;28;20040;-90
2021/07/04 04:11:21;;;;;;;50.28;36.58;;;;;;;;;;5028090;28;20605;-85
2021/07/04 04:14:07;;;;;;;49.75;35.47;;;;;;;;;;5012548;28;20055;-89
2021/07/04 04:16:52;;;;;;;44.20;31.85;;;;;;;;;;5003818;28;20040;-90
2021/07/04 04:19:37;;;;;;;45.13;33.25;;;;;;;;;;5012152;28;20043;-86
2021/07/04 04:22:22;;;;;;;48.38;34.17;;;;;;;;;;5016125;28;20044;-87
2021/07/04 04:25:08;;;;;;;42.97;30.48;;;;;;;;;;5036513;28;20051;-85
2021/07/04 04:27:53;;;;;;;44.38;33.17;;;;;;;;;;4985942;28;20406;-91
2021/07/04 04:30:39;;;;;;;46.03;31.33;;;;;;;;;;5036082;28;20039;-91
2021/07/04 04:33:24;;;;;;;41.45;30.48;;;;;;;;;;5013884;28;20320;-92
2021/07/04 04:36:09;;;;;;;38.70;27.42;;;;;;;;;;5014021;28;20044;-89
2021/07/04 04:38:54;;;;;;;35.08;25.45;;;;;;;;;;5005042;28;20064;-92
2021/07/04 04:41:43;;;;;;;32.38;23.33;;;;;;;;;;4946435;28;20543;-92
2021/07/04 04:44:33;;;;;;;28.73;21.25;;;;;;;;;;4987171;28;20040;-93
2021/07/04 04:47:21;;;;;;;30.10;22.73;;;;;;;;;;4960014;28;20056;-95
2021/07/04 04:50:07;;;;;;;26.45;20.92;;;;;;;;;;5017484;28;20273;-84
2021/07/04 04:52:52;;;;;;;28.20;20.95;;;;;;;;;;5005116;28;20052;-81
2021/07/04 04:55:37;;;;;;;33.28;23.13;;;;;;;;;;5025698;28;20060;-85
2021/07/04 04:58:23;;;;;;;39.90;26.20;;;;;;;;;;5022097;28;20040;-82
2021/07/04 05:01:09;;;;;;;39.17;25.67;;;;;;;;;;5038619;28;20537;-82
2021/07/04 05:03:55;;;;;;;38.15;25.25;;;;;;;;;;5039842;28;20040;-86
2021/07/04 05:06:41;;;;;;;33.30;23.08;;;;;;;;;;5043549;28;20313;-82
2021/07/04 05:09:27;;;;;;;32.78;22.77;;;;;;;;;;5040537;28;20040;-86
2021/07/04 05:12:12;;;;;;;31.42;21.10;;;;;;;;;;5034468;28;20223;-84
2021/07/04 05:14:59;;;;;;;29.58;20.55;;;;;;;;;;5026246;28;20403;-83
2021/07/04 05:17:44;;;;;;;29.35;20.77;;;;;;;;;;5021213;28;20530;-88
2021/07/04 05:20:29;;;;;;;27.38;20.92;;;;;;;;;;5008313;28;20044;-83
2021/07/04 05:23:14;;;;;;;31.55;21.08;;;;;;;;;;5040179;28;20510;-81
2021/07/04 05:25:59;;;;;;;28.60;21.75;;;;;;;;;;5035402;28;20060;-82
2021/07/04 05:28:44;;;;;;;26.85;20.90;;;;;;;;;;5040376;28;20308;-82
2021/07/04 05:31:29;;;;;;;30.45;23.55;;;;;;;;;;5037059;28;20424;-81
2021/07/04 05:34:14;;;;;;;28.27;21.13;;;;;;;;;;5024066;28;20048;-82
2021/07/04 05:36:59;;;;;;;27.65;21.33;;;;;;;;;;5052767;28;20035;-82
2021/07/04 05:39:45;;;;;;;31.23;22.23;;;;;;;;;;5029141;28;20411;-83
2021/07/04 05:42:31;;;;;;;30.05;22.60;;;;;;;;;;5026560;28;20036;-82
2021/07/04 05:45:17;;;;;;;30.63;23.13;;;;;;;;;;5041893;28;20036;-82
2021/07/04 05:48:04;;;;;;;28.52;21.92;;;;;;;;;;5040592;28;20048;-82
2021/07/04 05:50:50;;;;;;;29.67;22.40;;;;;;;;;;5025963;28;21256;-82
2021/07/04 05:53:35;;;;;;;25.98;20.98;;;;;;;;;;5043375;28;20048;-83
2021/07/04 05:56:20;;;;;;;30.23;22.67;;;;;;;;;;5043542;28;20048;-82
2021/07/04 05:59:06;;;;;;;33.38;24.17;;;;;;;;;;5041250;28;20514;-82
2021/07/04 06:01:50;;;;;;;26.88;21.08;;;;;;;;;;5038952;28;20052;-85
2021/07/04 06:04:36;;;;;;;28.42;20.25;;;;;;;;;;5028126;28;20052;-85
2021/07/04 06:07:21;;;;;;;29.52;20.92;;;;;;;;;;5023313;28;20049;-86
2021/07/04 06:10:06;;;;;;;30.88;22.60;;;;;;;;;;5039669;28;20052;-89
2021/07/04 06:12:52;;;;;;;29.83;22.65;;;;;;;;;;5043991;28;20041;-86
2021/07/04 06:15:36;;;;;;;35.08;26.30;;;;;;;;;;5044086;28;20304;-84
2021/07/04 06:18:22;;;;;;;29.27;23.70;;;;;;;;;;5028704;28;20310;-90
2021/07/04 06:21:07;;;;;;;36.45;24.40;;;;;;;;;;5029371;28;20048;-84
2021/07/04 06:23:55;;;;;;;30.67;22.17;;;;;;;;;;5042167;28;20040;-84
2021/07/04 06:26:42;;;;;;;28.13;20.92;;;;;;;;;;5018738;28;20294;-84
2021/07/04 06:29:27;;;;;;;29.98;21.85;;;;;;;;;;5041654;28;20044;-84
2021/07/04 06:32:12;;;;;;;23.85;18.75;;;;;;;;;;5026617;28;20049;-86
2021/07/04 06:34:57;;;;;;;26.98;19.35;;;;;;;;;;5036509;28;20045;-85
2021/07/04 06:37:43;;;;;;;28.50;19.15;;;;;;;;;;4981054;28;20044;-85
2021/07/04 06:40:29;;;;;;;29.40;19.92;;;;;;;;;;5020284;28;20044;-84
2021/07/04 06:43:14;;;;;;;33.60;23.10;;;;;;;;;;5008746;28;20048;-84
2021/07/04 06:46:04;;;;;;;34.03;23.45;;;;;;;;;;5028520;28;20052;-86
2021/07/04 06:48:49;;;;;;;27.92;20.50;;;;;;;;;;5031156;28;20036;-86
2021/07/04 06:51:34;;;;;;;29.48;21.27;;;;;;;;;;5031281;28;20075;-83
2021/07/04 06:54:19;;;;;;;28.98;20.63;;;;;;;;;;5042331;28;20427;-90
2021/07/04 07:00:21;;;;;;;25.17;17.85;;;;;;;;;;5018442;28;20553;-84
2021/07/04 07:03:06;;;;;;;31.23;22.38;;;;;;;;;;5029929;28;20048;-83
2021/07/04 07:05:51;;;;;;;28.83;21.48;;;;;;;;;;5032071;28;20071;-82
2021/07/04 07:08:38;;;;;;;28.40;20.02;;;;;;;;;;5040025;28;20044;-83
2021/07/04 07:11:23;;;;;;;29.33;21.88;;;;;;;;;;5016858;28;20040;-82
2021/07/04 07:14:08;;;;;;;30.17;22.50;;;;;;;;;;5026260;28;20100;-82
2021/07/04 07:16:53;;;;;;;33.63;21.98;;;;;;;;;;5021669;28;20047;-81
2021/07/04 07:19:42;;;;;;;31.90;21.77;;;;;;;;;;5041244;28;20047;-83
2021/07/04 07:22:27;;;;;;;30.95;21.30;;;;;;;;;;5040844;28;20036;-83
2021/07/04 07:25:13;;;;;;;30.05;20.27;;;;;;;;;;5042154;28;20529;-84
2021/07/04 07:27:59;;;;;;;27.65;20.33;;;;;;;;;;5040991;28;20051;-83
2021/07/04 07:30:44;;;;;;;26.67;19.88;;;;;;;;;;5011693;28;20500;-82
2021/07/04 07:33:29;;;;;;;26.55;18.92;;;;;;;;;;5022108;28;20108;-88
2021/07/04 07:36:17;;;;;;;25.75;17.40;;;;;;;;;;5027115;28;20040;-83
2021/07/04 07:39:03;;;;;;;27.20;19.40;;;;;;;;;;5042364;28;20040;-83
2021/07/04 07:41:48;;;;;;;25.15;17.08;;;;;;;;;;5032323;28;20424;-82
2021/07/04 07:44:33;;;;;;;26.77;19.35;;;;;;;;;;5039324;28;20048;-82
2021/07/04 07:47:18;;;;;;;26.00;19.23;;;;;;;;;;5041911;28;20068;-83
2021/07/04 07:50:05;;;;;;;23.90;17.10;;;;;;;;;;5027310;28;20040;-82
2021/07/04 07:52:50;;;;;;;25.70;19.42;;;;;;;;;;5001454;28;20060;-84
2021/07/04 07:55:36;;;;;;;25.45;19.17;;;;;;;;;;5026151;28;20044;-82
2021/07/04 07:58:24;;;;;;;26.25;18.63;;;;;;;;;;5035430;28;20035;-84
2021/07/04 08:01:09;;;;;;;23.80;18.77;;;;;;;;;;5025875;28;20045;-82
2021/07/04 08:03:54;;;;;;;23.90;18.23;;;;;;;;;;5038675;28;20040;-83
2021/07/04 08:06:39;;;;;;;26.17;18.83;;;;;;;;;;5031820;28;20048;-84
2021/07/04 08:09:24;;;;;;;25.30;19.02;;;;;;;;;;5036030;28;20041;-84
2021/07/04 08:12:09;;;;;;;27.20;17.80;;;;;;;;;;5028078;28;20419;-84
2021/07/04 08:14:54;;;;;;;24.52;19.02;;;;;;;;;;5036922;28;20040;-86
2021/07/04 08:17:39;;;;;;;26.60;19.23;;;;;;;;;;5038837;28;20044;-86
2021/07/04 08:20:24;;;;;;;27.20;18.33;;;;;;;;;;4927096;28;20056;-92
2021/07/04 08:23:12;;;;;;;37.70;23.50;;;;;;;;;;4996530;28;20527;-85
2021/07/04 08:25:57;;;;;;;91.68;35.92;;;;;;;;;;5011549;28;20059;-84
2021/07/04 08:28:43;;;;;;;54.38;25.77;;;;;;;;;;5028988;28;20395;-87
2021/07/04 08:31:28;;;;;;;26.95;18.60;;;;;;;;;;5028734;28;20044;-85
2021/07/04 08:34:15;;;;;;;37.63;21.33;;;;;;;;;;5013700;28;20486;-89
2021/07/04 08:37:00;;;;;;;28.52;17.90;;;;;;;;;;5042912;28;20044;-86
2021/07/04 08:39:45;;;;;;;33.83;22.45;;;;;;;;;;5029662;28;20044;-87
2021/07/04 08:42:30;;;;;;;25.98;18.02;;;;;;;;;;5041684;28;20048;-86
2021/07/04 08:45:16;;;;;;;26.38;18.58;;;;;;;;;;5042337;28;20044;-85
2021/07/04 08:48:01;;;;;;;25.67;17.67;;;;;;;;;;5010480;28;20342;-87
2021/07/04 08:50:47;;;;;;;24.65;17.50;;;;;;;;;;5049595;28;20044;-87
2021/07/04 08:53:32;;;;;;;24.75;17.27;;;;;;;;;;5042040;28;20506;-86
2021/07/04 08:56:17;;;;;;;22.85;18.48;;;;;;;;;;5044539;28;20047;-86
2021/07/04 08:59:03;;;;;;;28.02;19.88;;;;;;;;;;5032911;28;20044;-86
2021/07/04 09:01:49;;;;;;;32.13;22.63;;;;;;;;;;5039500;28;20068;-87
2021/07/04 09:04:34;;;;;;;27.95;20.08;;;;;;;;;;5021426;28;20044;-85
2021/07/04 09:07:26;;;;;;;26.73;18.85;;;;;;;;;;5041457;28;20056;-85
2021/07/04 09:10:13;;;;;;;32.35;20.90;;;;;;;;;;5038868;28;20052;-85
2021/07/04 09:13:03;;;;;;;35.10;23.65;;;;;;;;;;5041167;28;20106;-86
2021/07/04 09:16:10;;;;;;;39.85;23.08;;;;;;;;;;5050351;28;20510;-85
2021/07/04 09:19:11;;;;;;;46.08;27.35;;;;;;;;;;5057145;28;20044;-87
2021/07/04 09:22:01;;;;;;;49.50;27.35;;;;;;;;;;5054419;28;20092;-86
2021/07/04 09:24:47;;;;;;;50.42;33.05;;;;;;;;;;5045660;28;20044;-84
2021/07/04 09:27:33;;;;;;;49.47;30.75;;;;;;;;;;5021780;28;20060;-84
2021/07/04 09:30:18;;;;;;;51.03;34.33;;;;;;;;;;5046434;28;20040;-86
2021/07/04 09:33:16;;;;;;;40.58;28.25;;;;;;;;;;5047302;28;20052;-84
2021/07/04 09:36:03;;;;;;;44.60;27.52;;;;;;;;;;5037779;28;20039;-85
2021/07/04 09:38:48;;;;;;;37.85;21.80;;;;;;;;;;5057971;28;20044;-85
2021/07/04 09:41:32;;;;;;;38.85;22.90;;;;;;;;;;5036474;28;20064;-85
2021/07/04 09:44:24;;;;;;;35.65;20.65;;;;;;;;;;5046716;28;20052;-87
2021/07/04 09:47:16;;;;;;;40.53;22.92;;;;;;;;;;5037756;28;20044;-85
2021/07/04 09:50:03;;;;;;;33.38;19.85;;;;;;;;;;5034117;28;20044;-83
2021/07/04 09:53:02;;;;;;;34.92;21.60;;;;;;;;;;5014706;28;20048;-86
2021/07/04 09:55:51;;;;;;;39.63;26.08;;;;;;;;;;5022424;28;25384;-86
2021/07/04 09:58:36;;;;;;;41.97;26.92;;;;;;;;;;5018286;28;20091;-91
2021/07/04 10:01:43;;;;;;;40.42;24.25;;;;;;;;;;5035437;28;20040;-84
2021/07/04 10:04:37;;;;;;;39.28;24.13;;;;;;;;;;5040908;28;20072;-83
2021/07/04 10:07:31;;;;;;;36.67;23.33;;;;;;;;;;5042216;28;20064;-84
2021/07/04 10:10:16;;;;;;;36.80;22.17;;;;;;;;;;5015982;28;20044;-83
2021/07/04 10:13:01;;;;;;;40.80;24.35;;;;;;;;;;5034632;28;20059;-83
2021/07/04 10:15:46;;;;;;;34.60;22.67;;;;;;;;;;4985468;28;20310;-82
2021/07/04 10:18:32;;;;;;;26.83;17.98;;;;;;;;;;5025401;28;20036;-84
2021/07/04 10:21:18;;;;;;;26.58;18.30;;;;;;;;;;5041084;28;20051;-84
2021/07/04 10:24:05;;;;;;;28.50;19.05;;;;;;;;;;5022411;28;20056;-82
2021/07/04 10:26:51;;;;;;;20.73;15.93;;;;;;;;;;5025851;28;20526;-82
2021/07/04 10:29:39;;;;;;;24.80;16.40;;;;;;;;;;5044149;28;20044;-85
2021/07/04 10:32:25;;;;;;;31.48;18.73;;;;;;;;;;5039795;28;20403;-83
2021/07/04 10:35:11;;;;;;;32.53;19.52;;;;;;;;;;5044556;28;20577;-87
2021/07/04 10:38:11;;;;;;;32.45;18.83;;;;;;;;;;5035333;28;20040;-87
2021/07/04 10:41:06;;;;;;;21.92;15.20;;;;;;;;;;5048538;28;20047;-84
2021/07/04 10:43:51;;;;;;;22.63;15.82;;;;;;;;;;5024632;28;20256;-86
2021/07/04 10:46:43;;;;;;;25.60;18.05;;;;;;;;;;5039480;28;20116;-86
2021/07/04 10:49:33;;;;;;;24.88;18.63;;;;;;;;;;5039390;28;20236;-87
2021/07/04 10:52:18;;;;;;;26.02;18.52;;;;;;;;;;5019624;28;20558;-88
2021/07/04 10:55:06;;;;;;;35.10;27.73;;;;;;;;;;5035653;28;20040;-87
2021/07/04 10:57:51;;;;;;;34.28;21.08;;;;;;;;;;5030117;28;20044;-89
2021/07/04 11:00:42;;;;;;;28.27;19.80;;;;;;;;;;5039665;28;20481;-90
2021/07/04 11:03:30;;;;;;;27.90;18.40;;;;;;;;;;5011698;28;20041;-84
2021/07/04 11:06:16;;;;;;;25.98;18.17;;;;;;;;;;5026757;28;20048;-86
2021/07/04 11:09:01;;;;;;;21.55;15.77;;;;;;;;;;5052637;28;20048;-86
2021/07/04 11:11:46;;;;;;;21.27;15.77;;;;;;;;;;5041555;28;20048;-84
2021/07/04 11:14:31;;;;;;;25.02;16.60;;;;;;;;;;5000270;28;20040;-85
2021/07/04 11:17:16;;;;;;;20.80;12.32;;;;;;;;;;5042095;28;20049;-84
2021/07/04 11:20:09;;;;;;;13.82;11.30;;;;;;;;;;5041910;28;20526;-86
2021/07/04 11:22:58;;;;;;;15.02;13.30;;;;;;;;;;5055368;28;20044;-84
2021/07/04 11:25:44;;;;;;;14.50;11.80;;;;;;;;;;5054976;28;20048;-85
2021/07/04 11:28:29;;;;;;;14.30;12.05;;;;;;;;;;5005837;28;20297;-85
2021/07/04 11:31:17;;;;;;;14.27;12.60;;;;;;;;;;5039861;28;20036;-87
2021/07/04 11:34:04;;;;;;;13.60;11.30;;;;;;;;;;5041473;28;20040;-86
2021/07/04 11:36:49;;;;;;;14.48;10.52;;;;;;;;;;5047074;28;20044;-86
2021/07/04 11:39:34;;;;;;;14.27;12.77;;;;;;;;;;5037016;28;20510;-86
2021/07/04 11:42:23;;;;;;;11.07;8.90;;;;;;;;;;5037096;28;20550;-84
2021/07/04 11:45:15;;;;;;;12.38;9.00;;;;;;;;;;5017847;28;20041;-88
2021/07/04 11:48:00;;;;;;;12.57;10.38;;;;;;;;;;5024579;28;20576;-84
2021/07/04 11:50:47;;;;;;;11.80;8.38;;;;;;;;;;5032230;28;20044;-84
2021/07/04 11:53:31;;;;;;;10.25;9.18;;;;;;;;;;5040731;28;20411;-87
2021/07/04 11:56:17;;;;;;;12.82;10.07;;;;;;;;;;5046035;28;20051;-88
2021/07/04 11:59:16;;;;;;;14.95;11.70;;;;;;;;;;5038781;28;20040;-87
2021/07/04 12:02:01;;;;;;;12.07;9.88;;;;;;;;;;5036188;28;20061;-89
2021/07/04 12:04:48;;;;;;;14.13;10.63;;;;;;;;;;5035960;28;20407;-87
2021/07/04 12:07:33;;;;;;;12.55;9.75;;;;;;;;;;5029747;28;20109;-87
2021/07/04 12:10:18;;;;;;;12.98;10.13;;;;;;;;;;5026057;28;20044;-90
2021/07/04 12:13:03;;;;;;;10.82;8.63;;;;;;;;;;4985027;28;20068;-91
2021/07/04 12:16:01;;;;;;;11.27;9.57;;;;;;;;;;5014450;28;20045;-92
2021/07/04 12:18:52;;;;;;;14.48;9.50;;;;;;;;;;4990865;28;20037;-94
2021/07/04 12:21:39;;;;;;;12.23;10.30;;;;;;;;;;5003712;28;20444;-94
2021/07/04 12:24:50;;;;;;;11.38;8.75;;;;;;;;;;4991583;28;20427;-92
2021/07/04 12:27:36;;;;;;;12.85;9.40;;;;;;;;;;5013800;28;20053;-92
2021/07/04 12:30:34;;;;;;;12.80;9.85;;;;;;;;;;5014137;28;20032;-94
2021/07/04 12:33:21;;;;;;;13.07;9.73;;;;;;;;;;5012551;28;20037;-86
2021/07/04 12:36:08;;;;;;;13.18;9.10;;;;;;;;;;5030955;28;20059;-86
2021/07/04 12:38:56;;;;;;;12.10;9.38;;;;;;;;;;5032102;28;20092;-85
2021/07/04 12:41:42;;;;;;;10.85;9.05;;;;;;;;;;5003454;28;20033;-91
2021/07/04 12:44:27;;;;;;;11.93;8.18;;;;;;;;;;5030185;28;20040;-90
2021/07/04 12:47:12;;;;;;;12.82;10.25;;;;;;;;;;4964046;28;20057;-90
2021/07/04 12:50:03;;;;;;;10.80;9.35;;;;;;;;;;5015204;28;20040;-86
2021/07/04 12:52:56;;;;;;;12.30;10.07;;;;;;;;;;5016558;28;20040;-85
2021/07/04 12:55:47;;;;;;;13.82;9.63;;;;;;;;;;5019433;28;20052;-85
2021/07/04 12:58:36;;;;;;;10.32;8.50;;;;;;;;;;4996536;28;20060;-86
2021/07/04 13:01:23;;;;;;;11.95;9.13;;;;;;;;;;4989824;28;20044;-83
2021/07/04 13:04:08;;;;;;;10.70;9.25;;;;;;;;;;5030247;28;20406;-86
2021/07/04 13:06:57;;;;;;;12.35;8.75;;;;;;;;;;5008810;28;20052;-91
2021/07/04 13:09:44;;;;;;;12.93;9.70;;;;;;;;;;5026046;28;20126;-85
2021/07/04 13:12:35;;;;;;;13.73;9.80;;;;;;;;;;5025204;28;20051;-88
2021/07/04 13:15:22;;;;;;;11.20;9.57;;;;;;;;;;5025705;28;20045;-91
2021/07/04 13:18:08;;;;;;;15.13;10.13;;;;;;;;;;5018906;28;20528;-93
2021/07/04 13:20:56;;;;;;;13.27;10.68;;;;;;;;;;5007942;28;20056;-89
2021/07/04 13:23:41;;;;;;;13.80;10.45;;;;;;;;;;4999995;28;20518;-90
2021/07/04 13:26:34;;;;;;;14.10;10.95;;;;;;;;;;5015627;28;20051;-83
2021/07/04 13:29:23;;;;;;;14.23;11.27;;;;;;;;;;4989041;28;20040;-86
2021/07/04 13:32:09;;;;;;;14.52;11.32;;;;;;;;;;5030111;28;20044;-87
2021/07/04 13:34:57;;;;;;;18.65;13.98;;;;;;;;;;5025696;28;20040;-89
2021/07/04 13:37:51;;;;;;;20.08;14.18;;;;;;;;;;5020381;28;20534;-81
2021/07/04 13:40:37;;;;;;;24.58;16.90;;;;;;;;;;5030744;28;20044;-80
2021/07/04 13:43:22;;;;;;;24.55;18.08;;;;;;;;;;5001145;28;20210;-80
2021/07/04 13:46:06;;;;;;;25.90;18.83;;;;;;;;;;5015779;28;20330;-77
2021/07/04 13:48:51;;;;;;;22.15;16.15;;;;;;;;;;5013138;28;20045;-82
2021/07/04 13:51:36;;;;;;;21.88;17.73;;;;;;;;;;5032486;28;20277;-86
2021/07/04 13:54:23;;;;;;;25.45;16.63;;;;;;;;;;5004765;28;20041;-84
2021/07/04 13:57:09;;;;;;;22.02;17.98;;;;;;;;;;5012177;28;20064;-83
2021/07/04 13:59:55;;;;;;;20.63;16.48;;;;;;;;;;4995444;28;20493;-83
2021/07/04 14:02:43;;;;;;;22.10;16.60;;;;;;;;;;5026708;28;20164;-81
2021/07/04 14:05:29;;;;;;;24.95;18.50;;;;;;;;;;4993413;28;20044;-82
2021/07/04 14:08:16;;;;;;;22.38;18.70;;;;;;;;;;4988869;28;20056;-78
2021/07/04 14:11:01;;;;;;;;;;;;;;;;;;5020109;28;20064;-83
2021/07/04 14:13:46;;;;;;;29.05;19.30;;;;;;;;;;5006315;28;19927;-82
2021/07/04 14:16:31;;;;;;;24.65;19.65;;;;;;;;;;5029771;28;20044;-82
2021/07/04 14:19:16;;;;;;;30.33;23.20;;;;;;;;;;5033328;28;20518;-81
2021/07/04 14:22:03;;;;;;;27.25;20.85;;;;;;;;;;5048864;28;20554;-85
2021/07/04 14:24:50;;;;;;;28.00;23.95;;;;;;;;;;4993385;28;20056;-80
2021/07/04 14:27:35;;;;;;;28.52;23.05;;;;;;;;;;5010156;28;20056;-84
2021/07/04 14:30:21;;;;;;;25.05;20.95;;;;;;;;;;5004065;28;20040;-79
2021/07/04 14:33:06;;;;;;;30.60;21.92;;;;;;;;;;4973947;28;20059;-80
2021/07/04 14:35:54;;;;;;;28.98;23.05;;;;;;;;;;4964127;28;20061;-84
2021/07/04 14:38:42;;;;;;;29.58;21.90;;;;;;;;;;5002959;28;20286;-85
2021/07/04 14:41:28;;;;;;;26.67;22.27;;;;;;;;;;5026781;28;20036;-82
2021/07/04 14:44:14;;;;;;;30.40;24.02;;;;;;;;;;5014408;28;20048;-81
2021/07/04 14:46:59;;;;;;;27.75;22.58;;;;;;;;;;5031585;28;20044;-81
2021/07/04 14:49:45;;;;;;;35.25;22.80;;;;;;;;;;5016645;28;20048;-83
2021/07/04 14:52:32;;;;;;;29.70;23.55;;;;;;;;;;5041516;28;20051;-90
2021/07/04 14:55:33;;;;;;;29.02;23.45;;;;;;;;;;5046711;28;20043;-86
2021/07/04 14:58:19;;;;;;;28.40;23.00;;;;;;;;;;5023806;28;20041;-89
2021/07/04 15:01:06;;;;;;;30.42;24.25;;;;;;;;;;5045827;28;20044;-87
2021/07/04 15:03:51;;;;;;;28.63;23.42;;;;;;;;;;5036893;28;20048;-85
2021/07/04 15:06:36;;;;;;;29.73;25.20;;;;;;;;;;5038979;28;20040;-90
2021/07/04 15:09:21;;;;;;;30.38;24.98;;;;;;;;;;5037331;28;20044;-87
2021/07/04 15:12:07;;;;;;;35.08;27.23;;;;;;;;;;5041635;28;20040;-85
2021/07/04 15:14:52;;;;;;;33.30;26.73;;;;;;;;;;5027272;28;20422;-82
2021/07/04 15:17:39;;;;;;;33.08;26.27;;;;;;;;;;5037986;28;20458;-82
2021/07/04 15:20:26;;;;;;;33.95;25.50;;;;;;;;;;5032029;28;20040;-83
2021/07/04 15:23:11;;;;;;;32.58;25.75;;;;;;;;;;5016017;28;20048;-83
2021/07/04 15:26:03;;;;;;;32.60;27.08;;;;;;;;;;5038089;28;20044;-83
2021/07/04 15:28:49;;;;;;;39.15;28.38;;;;;;;;;;5003917;28;20067;-84
2021/07/04 15:31:35;;;;;;;35.03;27.95;;;;;;;;;;5012183;28;20040;-86
2021/07/04 15:34:20;;;;;;;38.45;29.00;;;;;;;;;;5020699;28;20463;-83
2021/07/04 15:37:05;;;;;;;40.38;29.70;;;;;;;;;;5039544;28;20056;-86
2021/07/04 15:39:51;;;;;;;41.42;30.58;;;;;;;;;;5001645;28;20049;-84
2021/07/04 15:42:36;;;;;;;38.38;31.83;;;;;;;;;;5034720;28;20048;-83
2021/07/04 15:45:25;;;;;;;44.15;33.88;;;;;;;;;;5038884;28;20407;-81
2021/07/04 15:48:10;;;;;;;45.63;32.95;;;;;;;;;;5048310;28;20079;-83
2021/07/04 15:50:56;;;;;;;39.20;31.40;;;;;;;;;;4999621;28;20347;-82
2021/07/04 15:53:41;;;;;;;47.83;36.15;;;;;;;;;;5029971;28;20051;-83
2021/07/04 15:56:29;;;;;;;53.92;38.95;;;;;;;;;;5003773;28;20451;-87
2021/07/04 15:59:14;;;;;;;62.85;44.70;;;;;;;;;;5018143;28;20040;-84
2021/07/04 16:02:00;;;;;;;62.38;44.22;;;;;;;;;;5017302;28;20041;-84
2021/07/04 16:04:46;;;;;;;74.30;48.55;;;;;;;;;;5003085;28;21037;-82
2021/07/04 16:07:31;;;;;;;75.93;52.92;;;;;;;;;;5013664;28;20057;-83
2021/07/04 16:10:17;;;;;;;83.03;57.90;;;;;;;;;;5008625;28;20048;-84
2021/07/04 16:13:02;;;;;;;92.43;62.50;;;;;;;;;;5016763;28;20063;-84
2021/07/04 16:15:47;;;;;;;93.15;65.25;;;;;;;;;;5009076;28;20131;-81